sensor_id;sensor_type;location;lat;lon;timestamp;P1;durP1;ratioP1;P2;durP2;ratioP2
52868;SDS011;39100;53.480;6.158;2022-11-14T00:00:27;16.55;;;8.10;;
52868;SDS011;39100;53.480;6.158;2022-11-14T00:02:54;16.05;;;7.38;;
52868;SDS011;39100;53.480;6.158;2022-11-14T00:05:23;12.18;;;6.85;;
52868;SDS011;39100;53.480;6.158;2022-11-14T00:07:48;15.38;;;8.35;;
52868;SDS011;39100;53.480;6.158;2022-11-14T00:10:14;14.38;;;7.93;;
52868;SDS011;39100;53.480;6.158;2022-11-14T00:12:40;12.98;;;7.07;;
52868;SDS011;39100;53.480;6.158;2022-11-14T00:15:06;13.27;;;6.88;;
52868;SDS011;39100;53.480;6.158;2022-11-14T00:17:32;12.52;;;6.50;;
52868;SDS011;39100;53.480;6.158;2022-11-14T00:19:58;18.58;;;7.30;;
52868;SDS011;39100;53.480;6.158;2022-11-14T00:22:23;14.50;;;6.95;;
52868;SDS011;39100;53.480;6.158;2022-11-14T00:24:49;15.43;;;7.30;;
52868;SDS011;39100;53.480;6.158;2022-11-14T00:27:14;10.70;;;6.07;;
52868;SDS011;39100;53.480;6.158;2022-11-14T00:29:40;11.65;;;6.18;;
52868;SDS011;39100;53.480;6.158;2022-11-14T00:32:05;10.05;;;5.80;;
52868;SDS011;39100;53.480;6.158;2022-11-14T00:34:31;14.60;;;7.00;;
52868;SDS011;39100;53.480;6.158;2022-11-14T00:36:57;13.68;;;7.07;;
52868;SDS011;39100;53.480;6.158;2022-11-14T00:39:23;14.30;;;7.05;;
52868;SDS011;39100;53.480;6.158;2022-11-14T00:41:49;14.25;;;7.15;;
52868;SDS011;39100;53.480;6.158;2022-11-14T00:44:14;11.95;;;6.40;;
52868;SDS011;39100;53.480;6.158;2022-11-14T00:46:40;12.05;;;5.47;;
52868;SDS011;39100;53.480;6.158;2022-11-14T00:49:05;12.93;;;6.50;;
52868;SDS011;39100;53.480;6.158;2022-11-14T00:51:31;11.43;;;6.13;;
52868;SDS011;39100;53.480;6.158;2022-11-14T00:53:57;12.75;;;6.43;;
52868;SDS011;39100;53.480;6.158;2022-11-14T00:56:22;11.57;;;6.25;;
52868;SDS011;39100;53.480;6.158;2022-11-14T00:58:48;11.98;;;5.60;;
52868;SDS011;39100;53.480;6.158;2022-11-14T01:01:13;13.20;;;7.07;;
52868;SDS011;39100;53.480;6.158;2022-11-14T01:03:39;14.30;;;7.50;;
52868;SDS011;39100;53.480;6.158;2022-11-14T01:06:05;12.18;;;6.07;;
52868;SDS011;39100;53.480;6.158;2022-11-14T01:08:32;15.52;;;7.00;;
52868;SDS011;39100;53.480;6.158;2022-11-14T01:10:58;14.05;;;7.07;;
52868;SDS011;39100;53.480;6.158;2022-11-14T01:13:24;14.20;;;7.35;;
52868;SDS011;39100;53.480;6.158;2022-11-14T01:15:50;14.35;;;7.30;;
52868;SDS011;39100;53.480;6.158;2022-11-14T01:18:18;13.05;;;6.90;;
52868;SDS011;39100;53.480;6.158;2022-11-14T01:20:45;14.93;;;7.85;;
52868;SDS011;39100;53.480;6.158;2022-11-14T01:23:12;16.15;;;8.07;;
52868;SDS011;39100;53.480;6.158;2022-11-14T01:25:40;13.93;;;6.28;;
52868;SDS011;39100;53.480;6.158;2022-11-14T01:28:08;14.27;;;6.88;;
52868;SDS011;39100;53.480;6.158;2022-11-14T01:30:35;15.80;;;7.63;;
52868;SDS011;39100;53.480;6.158;2022-11-14T01:33:01;19.27;;;8.70;;
52868;SDS011;39100;53.480;6.158;2022-11-14T01:35:28;16.63;;;8.48;;
52868;SDS011;39100;53.480;6.158;2022-11-14T01:37:54;17.33;;;8.50;;
52868;SDS011;39100;53.480;6.158;2022-11-14T01:40:20;18.45;;;8.55;;
52868;SDS011;39100;53.480;6.158;2022-11-14T01:45:53;15.98;;;8.35;;
52868;SDS011;39100;53.480;6.158;2022-11-14T01:48:36;17.42;;;9.40;;
52868;SDS011;39100;53.480;6.158;2022-11-14T01:51:20;22.08;;;10.77;;
52868;SDS011;39100;53.480;6.158;2022-11-14T01:53:57;16.75;;;9.73;;
52868;SDS011;39100;53.480;6.158;2022-11-14T01:56:28;21.80;;;10.93;;
52868;SDS011;39100;53.480;6.158;2022-11-14T02:01:31;22.48;;;11.07;;
52868;SDS011;39100;53.480;6.158;2022-11-14T02:04:00;20.38;;;10.23;;
52868;SDS011;39100;53.480;6.158;2022-11-14T02:06:28;22.38;;;11.10;;
52868;SDS011;39100;53.480;6.158;2022-11-14T02:08:55;19.25;;;10.93;;
52868;SDS011;39100;53.480;6.158;2022-11-14T02:11:24;22.15;;;12.05;;
52868;SDS011;39100;53.480;6.158;2022-11-14T02:13:54;21.55;;;11.07;;
52868;SDS011;39100;53.480;6.158;2022-11-14T02:16:20;20.10;;;10.77;;
52868;SDS011;39100;53.480;6.158;2022-11-14T02:18:45;22.23;;;11.93;;
52868;SDS011;39100;53.480;6.158;2022-11-14T02:21:11;25.80;;;12.52;;
52868;SDS011;39100;53.480;6.158;2022-11-14T02:23:36;22.10;;;12.00;;
52868;SDS011;39100;53.480;6.158;2022-11-14T02:26:02;23.75;;;12.60;;
52868;SDS011;39100;53.480;6.158;2022-11-14T02:28:27;23.40;;;12.75;;
52868;SDS011;39100;53.480;6.158;2022-11-14T02:30:53;24.38;;;12.85;;
52868;SDS011;39100;53.480;6.158;2022-11-14T02:33:19;21.88;;;11.52;;
52868;SDS011;39100;53.480;6.158;2022-11-14T02:35:45;23.58;;;12.85;;
52868;SDS011;39100;53.480;6.158;2022-11-14T02:38:10;25.75;;;13.98;;
52868;SDS011;39100;53.480;6.158;2022-11-14T02:40:36;21.05;;;11.55;;
52868;SDS011;39100;53.480;6.158;2022-11-14T02:43:01;22.15;;;12.02;;
52868;SDS011;39100;53.480;6.158;2022-11-14T02:45:27;27.23;;;13.95;;
52868;SDS011;39100;53.480;6.158;2022-11-14T02:47:53;27.70;;;13.73;;
52868;SDS011;39100;53.480;6.158;2022-11-14T02:50:18;28.73;;;14.05;;
52868;SDS011;39100;53.480;6.158;2022-11-14T02:52:44;33.45;;;16.02;;
52868;SDS011;39100;53.480;6.158;2022-11-14T02:55:09;26.40;;;13.65;;
52868;SDS011;39100;53.480;6.158;2022-11-14T02:57:35;27.77;;;14.23;;
52868;SDS011;39100;53.480;6.158;2022-11-14T03:00:01;28.50;;;14.60;;
52868;SDS011;39100;53.480;6.158;2022-11-14T03:02:28;26.77;;;12.60;;
52868;SDS011;39100;53.480;6.158;2022-11-14T03:04:53;31.45;;;15.50;;
52868;SDS011;39100;53.480;6.158;2022-11-14T03:07:19;28.63;;;12.93;;
52868;SDS011;39100;53.480;6.158;2022-11-14T03:09:44;29.73;;;14.50;;
52868;SDS011;39100;53.480;6.158;2022-11-14T03:12:10;26.20;;;13.07;;
52868;SDS011;39100;53.480;6.158;2022-11-14T03:14:35;29.52;;;13.40;;
52868;SDS011;39100;53.480;6.158;2022-11-14T03:17:01;23.65;;;11.93;;
52868;SDS011;39100;53.480;6.158;2022-11-14T03:19:26;27.02;;;12.50;;
52868;SDS011;39100;53.480;6.158;2022-11-14T03:21:52;25.13;;;13.07;;
52868;SDS011;39100;53.480;6.158;2022-11-14T03:24:18;30.52;;;13.48;;
52868;SDS011;39100;53.480;6.158;2022-11-14T03:26:43;25.33;;;12.40;;
52868;SDS011;39100;53.480;6.158;2022-11-14T03:29:09;30.77;;;16.10;;
52868;SDS011;39100;53.480;6.158;2022-11-14T03:31:34;28.63;;;14.50;;
52868;SDS011;39100;53.480;6.158;2022-11-14T03:34:00;25.50;;;13.55;;
52868;SDS011;39100;53.480;6.158;2022-11-14T03:36:26;26.70;;;13.15;;
52868;SDS011;39100;53.480;6.158;2022-11-14T03:38:51;29.40;;;13.05;;
52868;SDS011;39100;53.480;6.158;2022-11-14T03:41:17;26.23;;;13.25;;
52868;SDS011;39100;53.480;6.158;2022-11-14T03:43:42;22.45;;;11.60;;
52868;SDS011;39100;53.480;6.158;2022-11-14T03:46:08;24.38;;;12.40;;
52868;SDS011;39100;53.480;6.158;2022-11-14T03:48:33;22.08;;;12.50;;
52868;SDS011;39100;53.480;6.158;2022-11-14T03:50:59;26.38;;;12.30;;
52868;SDS011;39100;53.480;6.158;2022-11-14T03:53:24;22.50;;;11.13;;
52868;SDS011;39100;53.480;6.158;2022-11-14T03:55:50;22.63;;;11.98;;
52868;SDS011;39100;53.480;6.158;2022-11-14T03:58:16;25.92;;;12.40;;
52868;SDS011;39100;53.480;6.158;2022-11-14T04:00:42;22.65;;;11.63;;
52868;SDS011;39100;53.480;6.158;2022-11-14T04:03:07;27.75;;;13.07;;
52868;SDS011;39100;53.480;6.158;2022-11-14T04:05:33;24.88;;;12.75;;
52868;SDS011;39100;53.480;6.158;2022-11-14T04:07:58;32.65;;;15.35;;
52868;SDS011;39100;53.480;6.158;2022-11-14T04:10:24;25.20;;;13.43;;
52868;SDS011;39100;53.480;6.158;2022-11-14T04:12:50;27.23;;;13.95;;
52868;SDS011;39100;53.480;6.158;2022-11-14T04:15:17;27.98;;;14.07;;
52868;SDS011;39100;53.480;6.158;2022-11-14T04:17:43;26.88;;;13.88;;
52868;SDS011;39100;53.480;6.158;2022-11-14T04:20:09;29.02;;;13.95;;
52868;SDS011;39100;53.480;6.158;2022-11-14T04:22:36;28.83;;;14.75;;
52868;SDS011;39100;53.480;6.158;2022-11-14T04:25:02;27.00;;;15.27;;
52868;SDS011;39100;53.480;6.158;2022-11-14T04:27:28;27.00;;;13.52;;
52868;SDS011;39100;53.480;6.158;2022-11-14T04:29:54;27.65;;;12.95;;
52868;SDS011;39100;53.480;6.158;2022-11-14T04:32:19;26.38;;;14.15;;
52868;SDS011;39100;53.480;6.158;2022-11-14T04:34:45;23.52;;;12.90;;
52868;SDS011;39100;53.480;6.158;2022-11-14T04:37:10;23.88;;;12.82;;
52868;SDS011;39100;53.480;6.158;2022-11-14T04:39:36;26.83;;;14.00;;
52868;SDS011;39100;53.480;6.158;2022-11-14T04:42:01;29.38;;;15.30;;
52868;SDS011;39100;53.480;6.158;2022-11-14T04:44:27;27.13;;;13.93;;
52868;SDS011;39100;53.480;6.158;2022-11-14T04:46:53;27.35;;;13.60;;
52868;SDS011;39100;53.480;6.158;2022-11-14T04:49:18;28.05;;;14.35;;
52868;SDS011;39100;53.480;6.158;2022-11-14T04:51:44;29.02;;;14.30;;
52868;SDS011;39100;53.480;6.158;2022-11-14T04:54:09;24.67;;;13.90;;
52868;SDS011;39100;53.480;6.158;2022-11-14T04:56:35;24.45;;;13.95;;
52868;SDS011;39100;53.480;6.158;2022-11-14T04:59:01;25.73;;;13.82;;
52868;SDS011;39100;53.480;6.158;2022-11-14T05:01:26;27.67;;;13.68;;
52868;SDS011;39100;53.480;6.158;2022-11-14T05:03:52;22.80;;;12.20;;
52868;SDS011;39100;53.480;6.158;2022-11-14T05:06:17;24.10;;;12.77;;
52868;SDS011;39100;53.480;6.158;2022-11-14T05:08:43;29.38;;;13.80;;
52868;SDS011;39100;53.480;6.158;2022-11-14T05:11:15;28.35;;;14.07;;
52868;SDS011;39100;53.480;6.158;2022-11-14T05:13:42;27.73;;;14.77;;
52868;SDS011;39100;53.480;6.158;2022-11-14T05:16:08;25.73;;;12.90;;
52868;SDS011;39100;53.480;6.158;2022-11-14T05:18:34;25.17;;;12.65;;
52868;SDS011;39100;53.480;6.158;2022-11-14T05:21:00;28.65;;;14.10;;
52868;SDS011;39100;53.480;6.158;2022-11-14T05:23:25;27.58;;;13.95;;
52868;SDS011;39100;53.480;6.158;2022-11-14T05:26:01;25.83;;;13.65;;
52868;SDS011;39100;53.480;6.158;2022-11-14T05:28:28;25.38;;;12.80;;
52868;SDS011;39100;53.480;6.158;2022-11-14T05:31:04;25.48;;;13.52;;
52868;SDS011;39100;53.480;6.158;2022-11-14T05:33:31;21.65;;;12.75;;
52868;SDS011;39100;53.480;6.158;2022-11-14T05:36:04;24.60;;;13.23;;
52868;SDS011;39100;53.480;6.158;2022-11-14T05:38:32;29.85;;;14.20;;
52868;SDS011;39100;53.480;6.158;2022-11-14T05:40:58;25.65;;;13.27;;
52868;SDS011;39100;53.480;6.158;2022-11-14T05:43:24;25.63;;;13.35;;
52868;SDS011;39100;53.480;6.158;2022-11-14T05:45:57;23.08;;;12.43;;
52868;SDS011;39100;53.480;6.158;2022-11-14T05:48:26;29.80;;;14.77;;
52868;SDS011;39100;53.480;6.158;2022-11-14T05:50:53;25.48;;;12.40;;
52868;SDS011;39100;53.480;6.158;2022-11-14T05:53:20;21.80;;;12.65;;
52868;SDS011;39100;53.480;6.158;2022-11-14T05:55:45;26.15;;;13.35;;
52868;SDS011;39100;53.480;6.158;2022-11-14T05:58:11;24.33;;;12.80;;
52868;SDS011;39100;53.480;6.158;2022-11-14T06:00:36;26.52;;;14.25;;
52868;SDS011;39100;53.480;6.158;2022-11-14T06:03:02;32.33;;;15.27;;
52868;SDS011;39100;53.480;6.158;2022-11-14T06:05:27;30.33;;;16.25;;
52868;SDS011;39100;53.480;6.158;2022-11-14T06:07:53;28.85;;;15.07;;
52868;SDS011;39100;53.480;6.158;2022-11-14T06:10:23;28.25;;;14.05;;
52868;SDS011;39100;53.480;6.158;2022-11-14T06:12:49;25.88;;;13.88;;
52868;SDS011;39100;53.480;6.158;2022-11-14T06:15:15;27.00;;;13.95;;
52868;SDS011;39100;53.480;6.158;2022-11-14T06:17:40;28.25;;;14.65;;
52868;SDS011;39100;53.480;6.158;2022-11-14T06:20:06;27.98;;;15.05;;
52868;SDS011;39100;53.480;6.158;2022-11-14T06:22:32;25.88;;;13.90;;
52868;SDS011;39100;53.480;6.158;2022-11-14T06:24:59;28.27;;;13.73;;
52868;SDS011;39100;53.480;6.158;2022-11-14T06:27:28;28.42;;;15.02;;
52868;SDS011;39100;53.480;6.158;2022-11-14T06:29:53;27.92;;;14.48;;
52868;SDS011;39100;53.480;6.158;2022-11-14T06:32:19;26.45;;;14.98;;
52868;SDS011;39100;53.480;6.158;2022-11-14T06:34:45;24.13;;;13.07;;
52868;SDS011;39100;53.480;6.158;2022-11-14T06:37:10;26.70;;;14.52;;
52868;SDS011;39100;53.480;6.158;2022-11-14T06:39:36;26.80;;;13.98;;
52868;SDS011;39100;53.480;6.158;2022-11-14T06:42:01;27.17;;;13.85;;
52868;SDS011;39100;53.480;6.158;2022-11-14T06:44:27;25.13;;;12.73;;
52868;SDS011;39100;53.480;6.158;2022-11-14T06:46:53;25.33;;;13.02;;
52868;SDS011;39100;53.480;6.158;2022-11-14T06:49:18;23.55;;;12.20;;
52868;SDS011;39100;53.480;6.158;2022-11-14T06:51:44;25.15;;;13.10;;
52868;SDS011;39100;53.480;6.158;2022-11-14T06:54:10;25.33;;;12.60;;
52868;SDS011;39100;53.480;6.158;2022-11-14T06:56:36;28.95;;;14.35;;
52868;SDS011;39100;53.480;6.158;2022-11-14T06:59:02;25.90;;;12.85;;
52868;SDS011;39100;53.480;6.158;2022-11-14T07:01:27;24.33;;;13.07;;
52868;SDS011;39100;53.480;6.158;2022-11-14T07:03:55;24.40;;;12.98;;
52868;SDS011;39100;53.480;6.158;2022-11-14T07:06:24;25.85;;;13.50;;
52868;SDS011;39100;53.480;6.158;2022-11-14T07:08:51;26.85;;;12.98;;
52868;SDS011;39100;53.480;6.158;2022-11-14T07:11:19;23.33;;;13.13;;
52868;SDS011;39100;53.480;6.158;2022-11-14T07:13:51;24.70;;;13.65;;
52868;SDS011;39100;53.480;6.158;2022-11-14T07:16:17;25.50;;;13.15;;
52868;SDS011;39100;53.480;6.158;2022-11-14T07:18:44;27.83;;;13.95;;
52868;SDS011;39100;53.480;6.158;2022-11-14T07:21:10;27.25;;;13.82;;
52868;SDS011;39100;53.480;6.158;2022-11-14T07:23:40;28.67;;;13.38;;
52868;SDS011;39100;53.480;6.158;2022-11-14T07:26:06;27.80;;;13.07;;
52868;SDS011;39100;53.480;6.158;2022-11-14T07:28:34;22.75;;;11.80;;
52868;SDS011;39100;53.480;6.158;2022-11-14T07:31:04;30.45;;;14.93;;
52868;SDS011;39100;53.480;6.158;2022-11-14T07:33:31;26.00;;;12.68;;
52868;SDS011;39100;53.480;6.158;2022-11-14T07:35:58;26.83;;;13.50;;
52868;SDS011;39100;53.480;6.158;2022-11-14T07:38:26;29.45;;;14.15;;
52868;SDS011;39100;53.480;6.158;2022-11-14T07:40:53;30.63;;;15.60;;
52868;SDS011;39100;53.480;6.158;2022-11-14T07:43:26;30.65;;;14.68;;
52868;SDS011;39100;53.480;6.158;2022-11-14T07:45:52;27.35;;;13.48;;
52868;SDS011;39100;53.480;6.158;2022-11-14T07:48:18;27.30;;;13.05;;
52868;SDS011;39100;53.480;6.158;2022-11-14T07:50:45;31.55;;;14.63;;
52868;SDS011;39100;53.480;6.158;2022-11-14T07:53:11;31.42;;;14.52;;
52868;SDS011;39100;53.480;6.158;2022-11-14T07:55:37;32.67;;;15.68;;
52868;SDS011;39100;53.480;6.158;2022-11-14T07:58:03;29.08;;;14.50;;
52868;SDS011;39100;53.480;6.158;2022-11-14T08:00:29;31.75;;;14.45;;
52868;SDS011;39100;53.480;6.158;2022-11-14T08:02:54;25.33;;;12.82;;
52868;SDS011;39100;53.480;6.158;2022-11-14T08:05:21;29.27;;;13.27;;
52868;SDS011;39100;53.480;6.158;2022-11-14T08:07:50;26.83;;;12.60;;
52868;SDS011;39100;53.480;6.158;2022-11-14T08:10:16;24.90;;;13.68;;
52868;SDS011;39100;53.480;6.158;2022-11-14T08:12:42;23.60;;;11.85;;
52868;SDS011;39100;53.480;6.158;2022-11-14T08:15:09;25.70;;;12.43;;
52868;SDS011;39100;53.480;6.158;2022-11-14T08:17:36;26.42;;;12.80;;
52868;SDS011;39100;53.480;6.158;2022-11-14T08:20:02;24.13;;;12.25;;
52868;SDS011;39100;53.480;6.158;2022-11-14T08:22:29;25.45;;;12.70;;
52868;SDS011;39100;53.480;6.158;2022-11-14T08:24:55;26.00;;;12.18;;
52868;SDS011;39100;53.480;6.158;2022-11-14T08:27:21;30.00;;;15.02;;
52868;SDS011;39100;53.480;6.158;2022-11-14T08:29:47;24.42;;;12.48;;
52868;SDS011;39100;53.480;6.158;2022-11-14T08:32:15;24.75;;;12.45;;
52868;SDS011;39100;53.480;6.158;2022-11-14T08:34:43;29.90;;;13.88;;
52868;SDS011;39100;53.480;6.158;2022-11-14T08:37:09;24.70;;;12.38;;
52868;SDS011;39100;53.480;6.158;2022-11-14T08:39:34;27.48;;;13.45;;
52868;SDS011;39100;53.480;6.158;2022-11-14T08:42:00;28.63;;;13.30;;
52868;SDS011;39100;53.480;6.158;2022-11-14T08:44:25;29.92;;;13.75;;
52868;SDS011;39100;53.480;6.158;2022-11-14T08:46:51;26.83;;;13.23;;
52868;SDS011;39100;53.480;6.158;2022-11-14T08:49:17;29.20;;;13.95;;
52868;SDS011;39100;53.480;6.158;2022-11-14T08:51:42;28.25;;;13.40;;
52868;SDS011;39100;53.480;6.158;2022-11-14T08:54:08;28.33;;;14.23;;
52868;SDS011;39100;53.480;6.158;2022-11-14T08:56:33;27.80;;;13.30;;
52868;SDS011;39100;53.480;6.158;2022-11-14T08:59:01;25.20;;;12.70;;
52868;SDS011;39100;53.480;6.158;2022-11-14T09:01:27;27.27;;;12.75;;
52868;SDS011;39100;53.480;6.158;2022-11-14T09:03:53;23.33;;;11.82;;
52868;SDS011;39100;53.480;6.158;2022-11-14T09:06:19;30.25;;;14.05;;
52868;SDS011;39100;53.480;6.158;2022-11-14T09:08:44;30.60;;;14.40;;
52868;SDS011;39100;53.480;6.158;2022-11-14T09:11:10;31.33;;;14.00;;
52868;SDS011;39100;53.480;6.158;2022-11-14T09:13:38;27.42;;;13.70;;
52868;SDS011;39100;53.480;6.158;2022-11-14T09:16:14;20.75;;;11.82;;
52868;SDS011;39100;53.480;6.158;2022-11-14T09:18:40;26.58;;;11.95;;
52868;SDS011;39100;53.480;6.158;2022-11-14T09:21:06;31.30;;;15.15;;
52868;SDS011;39100;53.480;6.158;2022-11-14T09:23:32;25.58;;;13.48;;
52868;SDS011;39100;53.480;6.158;2022-11-14T09:26:06;27.17;;;14.25;;
52868;SDS011;39100;53.480;6.158;2022-11-14T09:28:35;26.95;;;12.50;;
52868;SDS011;39100;53.480;6.158;2022-11-14T09:31:01;24.92;;;12.90;;
52868;SDS011;39100;53.480;6.158;2022-11-14T09:33:32;25.23;;;12.05;;
52868;SDS011;39100;53.480;6.158;2022-11-14T09:35:59;30.40;;;13.93;;
52868;SDS011;39100;53.480;6.158;2022-11-14T09:38:29;24.48;;;12.07;;
52868;SDS011;39100;53.480;6.158;2022-11-14T09:46:33;31.67;;;14.93;;
52868;SDS011;39100;53.480;6.158;2022-11-14T09:49:08;26.70;;;11.82;;
52868;SDS011;39100;53.480;6.158;2022-11-14T09:51:46;30.65;;;14.25;;
52868;SDS011;39100;53.480;6.158;2022-11-14T09:56:52;31.70;;;13.85;;
52868;SDS011;39100;53.480;6.158;2022-11-14T09:59:18;25.63;;;12.60;;
52868;SDS011;39100;53.480;6.158;2022-11-14T10:05:13;25.35;;;13.15;;
52868;SDS011;39100;53.480;6.158;2022-11-14T10:13:16;25.20;;;12.20;;
52868;SDS011;39100;53.480;6.158;2022-11-14T10:23:56;29.70;;;14.77;;
52868;SDS011;39100;53.480;6.158;2022-11-14T10:37:32;28.23;;;14.02;;
52868;SDS011;39100;53.480;6.158;2022-11-14T10:53:27;24.42;;;12.85;;
52868;SDS011;39100;53.480;6.158;2022-11-14T10:56:02;26.50;;;14.20;;
52868;SDS011;39100;53.480;6.158;2022-11-14T10:58:28;26.63;;;14.23;;
52868;SDS011;39100;53.480;6.158;2022-11-14T11:00:54;27.63;;;13.85;;
52868;SDS011;39100;53.480;6.158;2022-11-14T11:03:19;25.35;;;12.77;;
52868;SDS011;39100;53.480;6.158;2022-11-14T11:06:03;26.10;;;12.88;;
52868;SDS011;39100;53.480;6.158;2022-11-14T11:08:29;26.00;;;14.38;;
52868;SDS011;39100;53.480;6.158;2022-11-14T11:11:13;28.98;;;14.18;;
52868;SDS011;39100;53.480;6.158;2022-11-14T11:13:56;30.50;;;15.52;;
52868;SDS011;39100;53.480;6.158;2022-11-14T11:16:24;27.23;;;14.02;;
52868;SDS011;39100;53.480;6.158;2022-11-14T11:18:51;25.40;;;13.25;;
52868;SDS011;39100;53.480;6.158;2022-11-14T11:21:18;27.40;;;14.55;;
52868;SDS011;39100;53.480;6.158;2022-11-14T11:23:49;27.48;;;14.05;;
52868;SDS011;39100;53.480;6.158;2022-11-14T11:26:23;26.35;;;14.02;;
52868;SDS011;39100;53.480;6.158;2022-11-14T11:34:11;25.17;;;12.45;;
52868;SDS011;39100;53.480;6.158;2022-11-14T11:36:41;24.75;;;12.80;;
52868;SDS011;39100;53.480;6.158;2022-11-14T11:39:12;21.67;;;13.80;;
52868;SDS011;39100;53.480;6.158;2022-11-14T11:41:47;25.15;;;13.57;;
52868;SDS011;39100;53.480;6.158;2022-11-14T11:44:14;22.60;;;13.50;;
52868;SDS011;39100;53.480;6.158;2022-11-14T11:46:52;26.63;;;13.95;;
52868;SDS011;39100;53.480;6.158;2022-11-14T11:52:01;28.35;;;13.88;;
52868;SDS011;39100;53.480;6.158;2022-11-14T11:54:48;25.20;;;13.32;;
52868;SDS011;39100;53.480;6.158;2022-11-14T11:57:21;23.60;;;13.35;;
52868;SDS011;39100;53.480;6.158;2022-11-14T11:59:53;26.13;;;12.55;;
52868;SDS011;39100;53.480;6.158;2022-11-14T12:02:40;26.27;;;13.30;;
52868;SDS011;39100;53.480;6.158;2022-11-14T12:05:13;25.60;;;13.40;;
52868;SDS011;39100;53.480;6.158;2022-11-14T12:07:44;27.58;;;14.35;;
52868;SDS011;39100;53.480;6.158;2022-11-14T12:10:16;23.90;;;14.02;;
52868;SDS011;39100;53.480;6.158;2022-11-14T12:18:52;21.83;;;12.90;;
52868;SDS011;39100;53.480;6.158;2022-11-14T12:24:33;19.33;;;12.02;;
52868;SDS011;39100;53.480;6.158;2022-11-14T12:32:27;24.35;;;11.90;;
52868;SDS011;39100;53.480;6.158;2022-11-14T12:34:56;19.23;;;11.30;;
52868;SDS011;39100;53.480;6.158;2022-11-14T12:37:45;18.92;;;10.57;;
52868;SDS011;39100;53.480;6.158;2022-11-14T12:42:57;25.98;;;14.30;;
52868;SDS011;39100;53.480;6.158;2022-11-14T12:56:20;29.85;;;14.60;;
52868;SDS011;39100;53.480;6.158;2022-11-14T13:01:49;23.77;;;13.25;;
52868;SDS011;39100;53.480;6.158;2022-11-14T13:12:40;22.40;;;12.77;;
52868;SDS011;39100;53.480;6.158;2022-11-14T13:18:20;23.27;;;13.63;;
52868;SDS011;39100;53.480;6.158;2022-11-14T13:24:05;23.30;;;11.95;;
52868;SDS011;39100;53.480;6.158;2022-11-14T13:28:57;23.55;;;12.32;;
52868;SDS011;39100;53.480;6.158;2022-11-14T13:31:46;22.23;;;12.75;;
52868;SDS011;39100;53.480;6.158;2022-11-14T13:50:31;25.65;;;13.35;;
52868;SDS011;39100;53.480;6.158;2022-11-14T13:53:00;21.35;;;12.20;;
52868;SDS011;39100;53.480;6.158;2022-11-14T13:58:22;26.35;;;13.77;;
52868;SDS011;39100;53.480;6.158;2022-11-14T14:07:06;24.73;;;12.68;;
52868;SDS011;39100;53.480;6.158;2022-11-14T14:12:28;22.08;;;12.02;;
52868;SDS011;39100;53.480;6.158;2022-11-14T14:15:07;20.77;;;11.48;;
52868;SDS011;39100;53.480;6.158;2022-11-14T14:17:52;19.95;;;12.15;;
52868;SDS011;39100;53.480;6.158;2022-11-14T14:20:34;23.20;;;12.38;;
52868;SDS011;39100;53.480;6.158;2022-11-14T14:23:12;22.15;;;12.63;;
52868;SDS011;39100;53.480;6.158;2022-11-14T14:28:39;22.05;;;12.05;;
52868;SDS011;39100;53.480;6.158;2022-11-14T14:31:17;23.90;;;12.43;;
52868;SDS011;39100;53.480;6.158;2022-11-14T14:33:50;21.60;;;11.73;;
52868;SDS011;39100;53.480;6.158;2022-11-14T14:38:47;22.00;;;12.18;;
52868;SDS011;39100;53.480;6.158;2022-11-14T14:41:14;22.77;;;11.68;;
52868;SDS011;39100;53.480;6.158;2022-11-14T14:43:42;23.10;;;11.82;;
52868;SDS011;39100;53.480;6.158;2022-11-14T14:46:15;21.80;;;11.63;;
52868;SDS011;39100;53.480;6.158;2022-11-14T14:48:49;25.77;;;12.95;;
52868;SDS011;39100;53.480;6.158;2022-11-14T14:51:16;17.73;;;10.52;;
52868;SDS011;39100;53.480;6.158;2022-11-14T14:54:00;21.10;;;11.05;;
52868;SDS011;39100;53.480;6.158;2022-11-14T14:56:26;20.15;;;10.80;;
52868;SDS011;39100;53.480;6.158;2022-11-14T14:58:52;18.88;;;10.68;;
52868;SDS011;39100;53.480;6.158;2022-11-14T15:01:20;17.90;;;10.43;;
52868;SDS011;39100;53.480;6.158;2022-11-14T15:03:57;22.17;;;12.75;;
52868;SDS011;39100;53.480;6.158;2022-11-14T15:06:36;22.55;;;10.63;;
52868;SDS011;39100;53.480;6.158;2022-11-14T15:11:39;19.25;;;10.93;;
52868;SDS011;39100;53.480;6.158;2022-11-14T15:14:15;20.48;;;10.77;;
52868;SDS011;39100;53.480;6.158;2022-11-14T15:16:46;21.48;;;11.35;;
52868;SDS011;39100;53.480;6.158;2022-11-14T15:19:15;22.42;;;10.52;;
52868;SDS011;39100;53.480;6.158;2022-11-14T15:21:55;17.48;;;10.02;;
52868;SDS011;39100;53.480;6.158;2022-11-14T15:24:28;20.38;;;10.82;;
52868;SDS011;39100;53.480;6.158;2022-11-14T15:26:54;18.85;;;10.57;;
52868;SDS011;39100;53.480;6.158;2022-11-14T15:29:20;19.27;;;10.23;;
52868;SDS011;39100;53.480;6.158;2022-11-14T15:32:00;23.77;;;11.77;;
52868;SDS011;39100;53.480;6.158;2022-11-14T15:37:06;16.30;;;9.35;;
52868;SDS011;39100;53.480;6.158;2022-11-14T15:39:42;20.92;;;10.85;;
52868;SDS011;39100;53.480;6.158;2022-11-14T15:44:52;18.63;;;9.82;;
52868;SDS011;39100;53.480;6.158;2022-11-14T15:52:36;17.52;;;8.70;;
52868;SDS011;39100;53.480;6.158;2022-11-14T15:55:37;18.02;;;9.73;;
52868;SDS011;39100;53.480;6.158;2022-11-14T15:57:56;19.08;;;9.60;;
52868;SDS011;39100;53.480;6.158;2022-11-14T16:00:22;22.48;;;10.90;;
52868;SDS011;39100;53.480;6.158;2022-11-14T16:02:54;21.52;;;10.77;;
52868;SDS011;39100;53.480;6.158;2022-11-14T16:05:26;20.27;;;10.68;;
52868;SDS011;39100;53.480;6.158;2022-11-14T16:07:52;19.30;;;9.98;;
52868;SDS011;39100;53.480;6.158;2022-11-14T16:10:22;19.83;;;9.85;;
52868;SDS011;39100;53.480;6.158;2022-11-14T16:15:16;20.83;;;10.02;;
52868;SDS011;39100;53.480;6.158;2022-11-14T16:17:44;19.30;;;10.65;;
52868;SDS011;39100;53.480;6.158;2022-11-14T16:20:13;22.35;;;11.43;;
52868;SDS011;39100;53.480;6.158;2022-11-14T16:22:40;18.73;;;9.95;;
52868;SDS011;39100;53.480;6.158;2022-11-14T16:25:26;17.58;;;9.55;;
52868;SDS011;39100;53.480;6.158;2022-11-14T16:27:53;18.27;;;9.38;;
52868;SDS011;39100;53.480;6.158;2022-11-14T16:30:19;15.60;;;9.52;;
52868;SDS011;39100;53.480;6.158;2022-11-14T16:32:47;19.60;;;9.95;;
52868;SDS011;39100;53.480;6.158;2022-11-14T16:37:42;16.27;;;9.10;;
52868;SDS011;39100;53.480;6.158;2022-11-14T16:40:18;21.17;;;11.55;;
52868;SDS011;39100;53.480;6.158;2022-11-14T16:42:47;20.35;;;10.48;;
52868;SDS011;39100;53.480;6.158;2022-11-14T16:45:18;16.73;;;9.38;;
52868;SDS011;39100;53.480;6.158;2022-11-14T16:47:44;18.13;;;9.82;;
52868;SDS011;39100;53.480;6.158;2022-11-14T16:50:10;18.63;;;10.43;;
52868;SDS011;39100;53.480;6.158;2022-11-14T16:52:36;20.17;;;10.35;;
52868;SDS011;39100;53.480;6.158;2022-11-14T16:55:05;19.75;;;9.90;;
52868;SDS011;39100;53.480;6.158;2022-11-14T16:57:32;17.17;;;10.27;;
52868;SDS011;39100;53.480;6.158;2022-11-14T16:59:57;16.83;;;8.45;;
52868;SDS011;39100;53.480;6.158;2022-11-14T17:02:23;15.70;;;9.15;;
52868;SDS011;39100;53.480;6.158;2022-11-14T17:04:49;17.30;;;8.80;;
52868;SDS011;39100;53.480;6.158;2022-11-14T17:07:14;14.13;;;7.93;;
52868;SDS011;39100;53.480;6.158;2022-11-14T17:09:40;14.23;;;8.43;;
52868;SDS011;39100;53.480;6.158;2022-11-14T17:12:06;16.42;;;9.57;;